createdAt,value
2017-01-12T00:00:33.202Z,0
2017-01-12T00:01:37.406Z,0
2017-01-12T00:02:42.603Z,0
2017-01-12T00:03:47.800Z,0
2017-01-12T00:04:52.003Z,0
2017-01-12T00:05:58.175Z,0
2017-01-12T00:07:03.378Z,0
2017-01-12T00:08:08.585Z,0
2017-01-12T00:09:12.802Z,0
2017-01-12T00:10:16.041Z,0
2017-01-12T00:11:22.229Z,0
2017-01-12T00:12:27.430Z,0
2017-01-12T00:13:32.631Z,0
2017-01-12T00:14:38.796Z,0
2017-01-12T00:15:43.019Z,0
2017-01-12T00:16:48.183Z,0
2017-01-12T00:17:53.516Z,0
2017-01-12T00:20:03.913Z,0
2017-01-12T00:21:09.103Z,0
2017-01-12T00:22:15.272Z,0
2017-01-12T00:23:20.436Z,0
2017-01-12T00:24:24.412Z,0
2017-01-12T00:25:30.583Z,0
2017-01-12T00:26:36.756Z,0
2017-01-12T00:27:41.964Z,0
2017-01-12T00:28:47.171Z,0
2017-01-12T00:29:52.366Z,0
2017-01-12T00:30:56.567Z,0
2017-01-12T00:32:00.793Z,0
2017-01-12T00:33:05.993Z,0
2017-01-12T00:34:11.187Z,0
2017-01-12T00:35:15.411Z,0
2017-01-12T00:36:20.604Z,0
2017-01-12T00:37:26.771Z,0
2017-01-12T00:38:32.932Z,0
2017-01-12T00:39:38.134Z,0
2017-01-12T00:40:43.328Z,0
2017-01-12T00:41:47.533Z,0
2017-01-12T00:42:51.787Z,0
2017-01-12T00:43:56.994Z,0
2017-01-12T00:45:02.162Z,0
2017-01-12T00:46:06.365Z,0
2017-01-12T00:47:11.558Z,0
2017-01-12T00:48:16.873Z,0
2017-01-12T00:49:22.073Z,0
2017-01-12T00:50:27.272Z,0
2017-01-12T00:51:33.444Z,0
2017-01-12T00:52:39.608Z,0
2017-01-12T00:53:45.789Z,0
2017-01-12T00:54:51.957Z,0
2017-01-12T00:55:57.139Z,0
2017-01-12T00:57:01.376Z,0
2017-01-12T00:58:07.543Z,0
2017-01-12T00:59:13.718Z,0
2017-01-12T01:00:17.982Z,0
2017-01-12T01:01:24.104Z,0
2017-01-12T01:02:30.271Z,0
2017-01-12T01:03:35.450Z,0
2017-01-12T01:04:39.679Z,0
2017-01-12T01:05:44.841Z,0
2017-01-12T01:06:50.040Z,0
2017-01-12T01:07:53.295Z,0
2017-01-12T01:08:56.524Z,0
2017-01-12T01:10:02.688Z,0
2017-01-12T01:11:08.854Z,0
2017-01-12T01:12:15.021Z,0
2017-01-12T01:13:20.212Z,0
2017-01-12T01:14:24.789Z,0
2017-01-12T01:15:31.114Z,0
2017-01-12T01:16:36.315Z,0
2017-01-12T01:17:41.522Z,0
2017-01-12T01:18:47.690Z,0
2017-01-12T01:19:52.884Z,0
2017-01-12T01:20:57.114Z,0
2017-01-12T01:22:02.308Z,0
2017-01-12T01:23:08.476Z,0
2017-01-12T01:24:13.675Z,0
2017-01-12T01:25:19.867Z,0
2017-01-12T01:26:26.035Z,0
2017-01-12T01:27:31.233Z,0
2017-01-12T01:28:36.424Z,0
2017-01-12T01:29:42.591Z,0
2017-01-12T01:30:48.751Z,0
2017-01-12T01:31:54.920Z,0
2017-01-12T01:33:00.175Z,0
2017-01-12T01:34:05.375Z,0
2017-01-12T01:35:11.557Z,0
2017-01-12T01:36:16.746Z,0
2017-01-12T01:37:21.060Z,0
2017-01-12T01:38:24.301Z,0
2017-01-12T01:39:27.571Z,0
2017-01-12T01:40:33.706Z,0
2017-01-12T01:41:39.886Z,0
2017-01-12T01:42:45.062Z,0
2017-01-12T01:43:51.227Z,0
2017-01-12T01:44:57.412Z,0
2017-01-12T01:46:03.577Z,0
2017-01-12T01:47:09.745Z,0
2017-01-12T01:48:14.976Z,0
2017-01-12T01:49:18.215Z,0
2017-01-12T01:50:24.408Z,0
2017-01-12T01:51:30.540Z,0
2017-01-12T01:52:34.771Z,0
2017-01-12T01:53:38.972Z,0
2017-01-12T01:54:43.232Z,0
2017-01-12T01:55:47.442Z,0
2017-01-12T01:56:52.643Z,0
2017-01-12T01:57:56.967Z,0
2017-01-12T01:59:02.166Z,0
2017-01-12T02:00:08.044Z,0
2017-01-12T02:01:12.282Z,0
2017-01-12T02:02:16.473Z,0
2017-01-12T02:03:22.644Z,0
2017-01-12T02:04:28.809Z,0
2017-01-12T02:05:34.001Z,0
2017-01-12T02:06:38.295Z,0
2017-01-12T02:07:44.583Z,0
2017-01-12T02:08:48.807Z,0
2017-01-12T02:09:53.998Z,0
2017-01-12T02:10:57.243Z,0
2017-01-12T02:12:02.446Z,0
2017-01-12T02:13:07.639Z,0
2017-01-12T02:14:13.014Z,0
2017-01-12T02:15:18.142Z,0
2017-01-12T02:16:23.342Z,0
2017-01-12T02:17:28.539Z,0
2017-01-12T02:18:33.733Z,0
2017-01-12T02:19:38.986Z,0
2017-01-12T02:20:44.178Z,0
2017-01-12T02:21:50.417Z,0
2017-01-12T02:22:55.613Z,0
2017-01-12T02:24:01.818Z,0
2017-01-12T02:25:07.049Z,0
2017-01-12T02:26:12.259Z,0
2017-01-12T02:27:16.024Z,0
2017-01-12T02:28:21.218Z,0
2017-01-12T02:29:26.420Z,0
2017-01-12T02:30:31.669Z,0
2017-01-12T02:31:35.883Z,0
2017-01-12T02:32:40.232Z,0
2017-01-12T02:33:46.402Z,0
2017-01-12T02:34:52.567Z,0
2017-01-12T02:35:58.739Z,0
2017-01-12T02:37:03.970Z,0
2017-01-12T02:38:08.275Z,0
2017-01-12T02:39:12.494Z,0
2017-01-12T02:40:18.745Z,0
2017-01-12T02:41:23.946Z,0
2017-01-12T02:42:28.190Z,0
2017-01-12T02:43:33.355Z,0
2017-01-12T02:44:38.560Z,0
2017-01-12T02:45:43.765Z,0
2017-01-12T02:46:49.931Z,0
2017-01-12T02:47:55.101Z,0
2017-01-12T02:48:59.323Z,0
2017-01-12T02:50:04.578Z,0
2017-01-12T02:51:09.747Z,0
2017-01-12T02:53:21.123Z,0
2017-01-12T02:54:27.292Z,0
2017-01-12T02:55:33.460Z,0
2017-01-12T02:56:38.664Z,0
2017-01-12T02:57:43.920Z,0
2017-01-12T02:58:50.093Z,0
2017-01-12T02:59:56.251Z,0
2017-01-12T03:01:00.543Z,0
2017-01-12T03:02:04.776Z,0
2017-01-12T03:03:08.985Z,0
2017-01-12T03:04:14.189Z,0
2017-01-12T03:05:20.347Z,0
2017-01-12T03:06:25.545Z,0
2017-01-12T03:07:31.742Z,0
2017-01-12T03:08:37.878Z,0
2017-01-12T03:09:43.077Z,0
2017-01-12T03:10:48.269Z,0
2017-01-12T03:11:54.439Z,0
2017-01-12T03:12:58.638Z,0
2017-01-12T03:14:04.804Z,0
2017-01-12T03:15:10.972Z,0
2017-01-12T03:16:16.175Z,0
2017-01-12T03:17:21.471Z,0
2017-01-12T03:18:27.595Z,0
2017-01-12T03:19:32.793Z,0
2017-01-12T03:20:38.965Z,0
2017-01-12T03:21:45.125Z,0
2017-01-12T03:22:50.326Z,0
2017-01-12T03:23:56.495Z,0
2017-01-12T03:25:01.692Z,0
2017-01-12T03:26:05.888Z,0
2017-01-12T03:27:11.081Z,0
2017-01-12T03:28:16.285Z,0
2017-01-12T03:29:21.494Z,0
2017-01-12T03:30:26.706Z,0
2017-01-12T03:31:32.924Z,0
2017-01-12T03:32:36.158Z,0
2017-01-12T03:33:41.463Z,0
2017-01-12T03:34:47.631Z,0
2017-01-12T03:35:52.827Z,0
2017-01-12T03:36:59.002Z,0
2017-01-12T03:38:04.248Z,0
2017-01-12T03:39:10.431Z,0
2017-01-12T03:40:16.599Z,0
2017-01-12T03:41:21.796Z,0
2017-01-12T03:42:27.965Z,0
2017-01-12T03:43:33.245Z,0
2017-01-12T03:44:39.475Z,0
2017-01-12T03:45:42.698Z,0
2017-01-12T03:46:47.925Z,0
2017-01-12T03:47:53.107Z,0
2017-01-12T03:48:57.303Z,0
2017-01-12T03:50:01.544Z,0
2017-01-12T03:51:07.703Z,0
2017-01-12T03:52:11.936Z,0
2017-01-12T03:53:17.106Z,0
2017-01-12T03:54:22.305Z,0
2017-01-12T03:55:27.503Z,0
2017-01-12T03:56:32.675Z,0
2017-01-12T03:57:37.844Z,0
2017-01-12T03:58:44.015Z,0
2017-01-12T03:59:48.618Z,0
2017-01-12T04:00:53.808Z,0
2017-01-12T04:01:59.980Z,0
2017-01-12T04:03:06.141Z,0
2017-01-12T04:04:12.299Z,0
2017-01-12T04:05:18.468Z,0
2017-01-12T04:06:23.640Z,0
2017-01-12T04:07:29.819Z,0
2017-01-12T04:08:35.020Z,0
2017-01-12T04:09:41.215Z,0
2017-01-12T04:10:47.364Z,0
2017-01-12T04:11:53.533Z,0
2017-01-12T04:12:57.742Z,0
2017-01-12T04:14:02.920Z,0
2017-01-12T04:15:09.081Z,0
2017-01-12T04:16:12.343Z,0
2017-01-12T04:17:18.514Z,0
2017-01-12T04:18:24.729Z,0
2017-01-12T04:19:30.880Z,0
2017-01-12T04:20:35.131Z,0
2017-01-12T04:21:40.318Z,0
2017-01-12T04:22:44.557Z,0
2017-01-12T04:23:50.685Z,0
2017-01-12T04:24:54.963Z,0
2017-01-12T04:25:58.195Z,0
2017-01-12T04:27:03.447Z,0
2017-01-12T04:28:08.650Z,0
2017-01-12T04:29:12.854Z,0
2017-01-12T04:30:18.056Z,0
2017-01-12T04:31:24.216Z,0
2017-01-12T04:32:30.376Z,0
2017-01-12T04:33:34.589Z,0
2017-01-12T04:34:40.867Z,0
2017-01-12T04:35:46.071Z,0
2017-01-12T04:36:52.234Z,0
2017-01-12T04:37:56.472Z,0
2017-01-12T04:39:02.644Z,0
2017-01-12T04:40:06.892Z,0
2017-01-12T04:41:13.058Z,0
2017-01-12T04:42:18.270Z,0
2017-01-12T04:43:23.480Z,0
2017-01-12T04:44:29.647Z,0
2017-01-12T04:45:33.918Z,0
2017-01-12T04:46:39.115Z,0
2017-01-12T04:47:45.275Z,0
2017-01-12T04:48:50.450Z,0
2017-01-12T04:49:56.623Z,0
2017-01-12T04:51:01.826Z,0
2017-01-12T04:52:06.051Z,0
2017-01-12T04:53:12.246Z,0
2017-01-12T04:54:16.456Z,0
2017-01-12T04:55:21.678Z,0
2017-01-12T04:56:26.915Z,0
2017-01-12T04:57:33.049Z,0
2017-01-12T04:58:39.258Z,0
2017-01-12T04:59:44.473Z,0
2017-01-12T05:00:49.665Z,0
2017-01-12T05:01:55.839Z,0
2017-01-12T05:03:01.131Z,0
2017-01-12T05:04:05.434Z,0
2017-01-12T05:05:11.501Z,0
2017-01-12T05:06:17.695Z,0
2017-01-12T05:07:21.910Z,0
2017-01-12T05:08:28.070Z,0
2017-01-12T05:09:31.306Z,0
2017-01-12T05:10:36.483Z,0
2017-01-12T05:11:42.401Z,0
2017-01-12T05:12:47.601Z,0
2017-01-12T05:13:52.822Z,0
2017-01-12T05:14:59.017Z,0
2017-01-12T05:16:02.968Z,0
2017-01-12T05:17:08.164Z,0
2017-01-12T05:18:13.364Z,0
2017-01-12T05:19:19.660Z,0
2017-01-12T05:20:25.796Z,0
2017-01-12T05:21:31.964Z,0
2017-01-12T05:22:37.135Z,0
2017-01-12T05:23:41.435Z,0
2017-01-12T05:24:46.630Z,0
2017-01-12T05:25:52.800Z,0
2017-01-12T05:26:58.980Z,0
2017-01-12T05:28:03.204Z,0
2017-01-12T05:29:08.397Z,0
2017-01-12T05:30:14.561Z,0
2017-01-12T05:31:20.741Z,0
2017-01-12T05:32:26.920Z,0
2017-01-12T05:33:33.107Z,0
2017-01-12T05:34:38.303Z,0
2017-01-12T05:35:44.466Z,0
2017-01-12T05:36:50.633Z,0
2017-01-12T05:37:56.832Z,0
2017-01-12T05:39:02.002Z,0
2017-01-12T05:40:06.231Z,0
2017-01-12T05:41:12.391Z,0
2017-01-12T05:42:15.626Z,0
2017-01-12T05:43:21.788Z,0
2017-01-12T05:44:28.010Z,0
2017-01-12T05:45:34.181Z,0
2017-01-12T05:46:39.365Z,0
2017-01-12T05:47:42.595Z,0
2017-01-12T05:48:48.764Z,0
2017-01-12T05:49:53.015Z,0
2017-01-12T05:50:59.186Z,0
2017-01-12T05:52:03.388Z,0
2017-01-12T05:53:09.560Z,0
2017-01-12T05:54:14.751Z,0
2017-01-12T05:55:19.988Z,0
2017-01-12T05:56:25.155Z,0
2017-01-12T05:57:31.340Z,0
2017-01-12T05:58:37.497Z,0
2017-01-12T05:59:42.697Z,0
2017-01-12T06:00:47.900Z,0
2017-01-12T06:01:53.103Z,0
2017-01-12T06:02:59.268Z,0
2017-01-12T06:04:03.483Z,0
2017-01-12T06:05:08.712Z,0
2017-01-12T06:06:13.879Z,0
2017-01-12T06:07:19.039Z,0
2017-01-12T06:08:23.272Z,0
2017-01-12T06:09:28.473Z,0
2017-01-12T06:10:33.642Z,0
2017-01-12T06:11:37.843Z,0
2017-01-12T06:12:43.225Z,0
2017-01-12T06:13:49.485Z,0
2017-01-12T06:14:55.653Z,0
2017-01-12T06:15:59.862Z,0
2017-01-12T06:17:03.102Z,0
2017-01-12T06:18:08.279Z,0
2017-01-12T06:19:14.451Z,0
2017-01-12T06:20:19.677Z,0
2017-01-12T06:21:22.919Z,0
2017-01-12T06:22:28.111Z,0
2017-01-12T06:23:33.415Z,0
2017-01-12T06:24:38.604Z,0
2017-01-12T06:25:42.804Z,0
2017-01-12T06:26:48.001Z,0
2017-01-12T06:27:54.200Z,0
2017-01-12T06:28:59.449Z,0
2017-01-12T06:30:05.617Z,0
2017-01-12T06:31:10.800Z,0
2017-01-12T06:32:16.045Z,0
2017-01-12T06:33:21.243Z,0
2017-01-12T06:34:27.477Z,0
2017-01-12T06:35:32.654Z,0
2017-01-12T06:36:37.850Z,0
2017-01-12T06:37:43.045Z,0
2017-01-12T06:38:47.239Z,0
2017-01-12T06:39:52.442Z,0
2017-01-12T06:40:54.718Z,0
2017-01-12T06:41:59.040Z,0
2017-01-12T06:43:04.219Z,0
2017-01-12T06:44:10.383Z,0
2017-01-12T06:45:14.611Z,0
2017-01-12T06:46:19.786Z,0
2017-01-12T06:47:25.635Z,0
2017-01-12T06:48:31.815Z,0
2017-01-12T06:49:37.014Z,0
2017-01-12T06:50:42.218Z,0
2017-01-12T06:51:46.441Z,0
2017-01-12T06:52:51.644Z,0
2017-01-12T06:53:57.814Z,0
2017-01-12T06:55:03.100Z,0
2017-01-12T06:56:09.264Z,0
2017-01-12T06:57:14.457Z,0
2017-01-12T06:58:18.673Z,0
2017-01-12T06:59:24.847Z,0
2017-01-12T07:00:30.054Z,0
2017-01-12T07:01:34.276Z,0
2017-01-12T07:02:37.520Z,0
2017-01-12T07:03:41.729Z,0
2017-01-12T07:04:46.945Z,0
2017-01-12T07:05:52.170Z,0
2017-01-12T07:06:58.316Z,0
2017-01-12T07:08:04.469Z,0
2017-01-12T07:09:08.700Z,0
2017-01-12T07:10:12.957Z,0
2017-01-12T07:11:18.122Z,0
2017-01-12T07:12:24.400Z,0
2017-01-12T07:13:30.566Z,0
2017-01-12T07:14:36.744Z,0
2017-01-12T07:15:39.978Z,0
2017-01-12T07:16:45.178Z,0
2017-01-12T07:17:50.378Z,0
2017-01-12T07:18:56.553Z,0
2017-01-12T07:20:01.764Z,0
2017-01-12T07:21:07.393Z,5
2017-01-12T07:22:13.560Z,5
2017-01-12T07:23:17.808Z,5
2017-01-12T07:24:22.994Z,5
2017-01-12T07:25:27.521Z,5
2017-01-12T07:26:33.691Z,5
2017-01-12T07:27:38.887Z,5
2017-01-12T07:28:44.097Z,10
2017-01-12T07:29:50.258Z,10
2017-01-12T07:30:55.473Z,10
2017-01-12T07:32:00.650Z,10
2017-01-12T07:33:06.930Z,10
2017-01-12T07:34:13.098Z,15
2017-01-12T07:35:19.269Z,15
2017-01-12T07:36:24.469Z,15
2017-01-12T07:37:28.792Z,15
2017-01-12T07:38:33.989Z,20
2017-01-12T07:39:39.267Z,25
2017-01-12T07:40:42.423Z,25
2017-01-12T07:41:46.653Z,20
2017-01-12T07:42:52.826Z,20
2017-01-12T07:43:59.060Z,20
2017-01-12T07:45:03.294Z,20
2017-01-12T07:46:08.491Z,20
2017-01-12T07:48:17.052Z,20
2017-01-12T07:49:22.261Z,25
2017-01-12T07:50:27.455Z,25
2017-01-12T07:51:32.669Z,30
2017-01-12T07:52:36.972Z,30
2017-01-12T07:53:43.189Z,30
2017-01-12T07:54:47.403Z,35
2017-01-12T07:55:51.628Z,35
2017-01-12T07:56:56.894Z,40
2017-01-12T07:58:02.061Z,40
2017-01-12T07:59:08.246Z,40
2017-01-12T08:00:13.450Z,45
2017-01-12T08:01:17.652Z,45
2017-01-12T08:02:23.821Z,50
2017-01-12T08:03:29.116Z,60
2017-01-12T08:04:33.349Z,60
2017-01-12T08:05:37.617Z,60
2017-01-12T08:06:43.778Z,65
2017-01-12T08:07:48.007Z,60
2017-01-12T08:08:54.176Z,65
2017-01-12T08:09:59.372Z,70
2017-01-12T08:11:03.604Z,75
2017-01-12T08:12:08.855Z,75
2017-01-12T08:13:15.017Z,80
2017-01-12T08:14:20.227Z,90
2017-01-12T08:15:26.391Z,95
2017-01-12T08:16:31.588Z,90
2017-01-12T08:17:36.778Z,90
2017-01-12T08:18:41.025Z,80
2017-01-12T08:19:44.268Z,80
2017-01-12T08:20:50.434Z,80
2017-01-12T08:21:55.633Z,95
2017-01-12T08:22:59.860Z,100
2017-01-12T08:24:06.039Z,110
2017-01-12T08:25:10.276Z,110
2017-01-12T08:26:14.470Z,115
2017-01-12T08:27:20.677Z,110
2017-01-12T08:28:26.853Z,110
2017-01-12T08:29:33.019Z,120
2017-01-12T08:30:38.188Z,140
2017-01-12T08:31:43.479Z,135
2017-01-12T08:32:49.645Z,135
2017-01-12T08:33:55.834Z,140
2017-01-12T08:35:01.032Z,155
2017-01-12T08:36:05.239Z,165
2017-01-12T08:37:10.411Z,165
2017-01-12T08:38:16.659Z,135
2017-01-12T08:39:22.832Z,130
2017-01-12T08:40:29.044Z,145
2017-01-12T08:41:33.276Z,125
2017-01-12T08:42:39.448Z,130
2017-01-12T08:43:44.648Z,135
2017-01-12T08:44:49.852Z,135
2017-01-12T08:45:54.084Z,140
2017-01-12T08:46:59.296Z,150
2017-01-12T08:48:05.473Z,165
2017-01-12T08:49:09.737Z,185
2017-01-12T08:50:15.869Z,175
2017-01-12T08:51:21.069Z,185
2017-01-12T08:52:27.264Z,215
2017-01-12T08:53:32.433Z,300
2017-01-12T08:54:38.603Z,365
2017-01-12T08:55:43.806Z,445
2017-01-12T08:56:50.029Z,365
2017-01-12T08:57:55.204Z,260
2017-01-12T08:59:00.415Z,340
2017-01-12T09:00:05.667Z,385
2017-01-12T09:01:11.790Z,345
2017-01-12T09:02:16.989Z,395
2017-01-12T09:03:23.160Z,230
2017-01-12T09:04:28.362Z,190
2017-01-12T09:05:34.544Z,205
2017-01-12T09:06:40.708Z,230
2017-01-12T09:07:44.970Z,235
2017-01-12T09:08:50.165Z,210
2017-01-12T09:09:55.345Z,195
2017-01-12T09:11:00.582Z,260
2017-01-12T09:12:03.822Z,450
2017-01-12T09:13:09.983Z,560
2017-01-12T09:14:15.181Z,580
2017-01-12T09:15:19.385Z,480
2017-01-12T09:16:23.661Z,595
2017-01-12T09:17:29.811Z,605
2017-01-12T09:18:35.986Z,565
2017-01-12T09:19:42.153Z,495
2017-01-12T09:20:47.352Z,495
2017-01-12T09:21:53.526Z,285
2017-01-12T09:22:58.729Z,455
2017-01-12T09:24:03.922Z,475
2017-01-12T09:25:10.096Z,470
2017-01-12T09:26:16.259Z,420
2017-01-12T09:27:22.423Z,485
2017-01-12T09:28:27.601Z,310
2017-01-12T09:29:32.860Z,565
2017-01-12T09:30:39.032Z,585
2017-01-12T09:31:44.232Z,690
2017-01-12T09:32:50.405Z,740
2017-01-12T09:33:56.570Z,640
2017-01-12T09:35:01.776Z,300
2017-01-12T09:36:06.981Z,255
2017-01-12T09:37:12.182Z,220
2017-01-12T09:38:17.475Z,230
2017-01-12T09:39:22.675Z,520
2017-01-12T09:40:27.879Z,620
2017-01-12T09:41:34.059Z,625
2017-01-12T09:42:39.235Z,630
2017-01-12T09:43:44.400Z,465
2017-01-12T09:44:49.635Z,245
2017-01-12T09:45:52.874Z,225
2017-01-12T09:46:58.215Z,215
2017-01-12T09:48:02.445Z,320
2017-01-12T09:49:07.667Z,505
2017-01-12T09:50:11.880Z,780
2017-01-12T09:51:17.084Z,795
2017-01-12T09:52:22.280Z,440
2017-01-12T09:53:26.565Z,895
2017-01-12T09:54:32.741Z,880
2017-01-12T09:55:38.917Z,745
2017-01-12T09:56:43.148Z,705
2017-01-12T09:57:49.320Z,625
2017-01-12T09:58:53.608Z,465
2017-01-12T09:59:59.794Z,635
2017-01-12T10:01:05.943Z,365
2017-01-12T10:02:12.116Z,505
2017-01-12T10:03:18.296Z,365
2017-01-12T10:04:22.532Z,340
2017-01-12T10:05:26.769Z,385
2017-01-12T10:06:32.958Z,370
2017-01-12T10:07:38.162Z,425
2017-01-12T10:08:44.380Z,455
2017-01-12T10:09:49.548Z,410
2017-01-12T10:10:53.859Z,355
2017-01-12T10:12:00.033Z,305
2017-01-12T10:13:06.389Z,285
2017-01-12T10:14:11.635Z,305
2017-01-12T10:15:17.793Z,280
2017-01-12T10:16:22.960Z,280
2017-01-12T10:17:28.184Z,260
2017-01-12T10:18:34.360Z,290
2017-01-12T10:19:39.566Z,315
2017-01-12T10:20:43.901Z,380
2017-01-12T10:21:50.064Z,375
2017-01-12T10:22:55.263Z,370
2017-01-12T10:24:00.462Z,405
2017-01-12T10:25:03.705Z,325
2017-01-12T10:26:07.937Z,395
2017-01-12T10:27:13.207Z,445
2017-01-12T10:28:19.395Z,475
2017-01-12T10:29:22.643Z,605
2017-01-12T10:31:34.017Z,605
2017-01-12T10:32:38.323Z,555
2017-01-12T10:33:43.530Z,525
2017-01-12T10:34:48.728Z,555
2017-01-12T10:35:53.930Z,645
2017-01-12T10:36:59.099Z,650
2017-01-12T10:38:04.313Z,730
2017-01-12T10:39:10.536Z,525
2017-01-12T10:40:16.814Z,520
2017-01-12T10:41:22.951Z,440
2017-01-12T10:42:27.221Z,475
2017-01-12T10:43:32.400Z,430
2017-01-12T10:44:38.566Z,400
2017-01-12T10:45:44.746Z,430
2017-01-12T10:46:50.919Z,370
2017-01-12T10:47:56.101Z,660
2017-01-12T10:48:59.469Z,910
2017-01-12T10:50:05.011Z,985
2017-01-12T10:51:11.314Z,900
2017-01-12T10:52:15.683Z,845
2017-01-12T10:53:20.888Z,750
2017-01-12T10:54:26.095Z,775
2017-01-12T10:55:32.313Z,780
2017-01-12T10:56:37.515Z,750
2017-01-12T10:57:43.686Z,605
2017-01-12T10:58:49.865Z,310
2017-01-12T10:59:56.188Z,285
2017-01-12T11:01:01.408Z,270
2017-01-12T11:02:07.265Z,265
2017-01-12T11:03:12.479Z,270
2017-01-12T11:04:16.683Z,265
2017-01-12T11:05:21.947Z,290
2017-01-12T11:06:27.146Z,325
2017-01-12T11:07:33.305Z,500
2017-01-12T11:08:38.507Z,705
2017-01-12T11:09:43.711Z,375
2017-01-12T11:10:48.911Z,265
2017-01-12T11:11:54.112Z,265
2017-01-12T11:12:59.323Z,285
2017-01-12T11:14:04.524Z,320
2017-01-12T11:15:09.800Z,320
2017-01-12T11:16:14.018Z,320
2017-01-12T11:17:18.279Z,300
2017-01-12T11:18:23.480Z,300
2017-01-12T11:19:28.698Z,280
2017-01-12T11:20:30.971Z,265
2017-01-12T11:21:36.180Z,245
2017-01-12T11:22:41.351Z,255
2017-01-12T11:23:45.581Z,245
2017-01-12T11:24:50.789Z,250
2017-01-12T11:25:55.995Z,260
2017-01-12T11:27:02.171Z,230
2017-01-12T11:28:07.366Z,220
2017-01-12T11:29:12.598Z,215
2017-01-12T11:30:18.760Z,210
2017-01-12T11:31:23.999Z,210
2017-01-12T11:32:29.162Z,205
2017-01-12T11:33:33.403Z,205
2017-01-12T11:34:38.710Z,200
2017-01-12T11:35:44.870Z,205
2017-01-12T11:36:50.057Z,205
2017-01-12T11:37:55.327Z,205
2017-01-12T11:39:00.506Z,205
2017-01-12T11:40:06.673Z,225
2017-01-12T11:41:12.844Z,225
2017-01-12T11:42:19.010Z,215
2017-01-12T11:43:24.216Z,205
2017-01-12T11:44:30.432Z,215
2017-01-12T11:45:36.599Z,220
2017-01-12T11:46:40.920Z,205
2017-01-12T11:47:46.146Z,205
2017-01-12T11:48:52.335Z,205
2017-01-12T11:49:57.526Z,215
2017-01-12T11:51:01.881Z,225
2017-01-12T11:52:08.043Z,225
2017-01-12T11:53:13.294Z,225
2017-01-12T11:54:17.482Z,230
2017-01-12T11:55:22.689Z,240
2017-01-12T11:56:27.900Z,245
2017-01-12T11:57:33.097Z,240
2017-01-12T11:58:37.306Z,220
2017-01-12T11:59:42.505Z,225
2017-01-12T12:00:47.706Z,220
2017-01-12T12:01:53.870Z,240
2017-01-12T12:02:58.089Z,205
2017-01-12T12:04:04.259Z,195
2017-01-12T12:05:08.500Z,190
2017-01-12T12:06:14.669Z,200
2017-01-12T12:07:20.835Z,195
2017-01-12T12:08:26.040Z,210
2017-01-12T12:09:31.214Z,195
2017-01-12T12:10:36.420Z,200
2017-01-12T12:11:41.632Z,180
2017-01-12T12:13:52.029Z,190
2017-01-12T12:14:56.256Z,205
2017-01-12T12:16:02.424Z,210
2017-01-12T12:17:08.638Z,215
2017-01-12T12:18:13.879Z,210
2017-01-12T12:19:20.052Z,205
2017-01-12T12:20:26.220Z,210
2017-01-12T12:21:31.423Z,210
2017-01-12T12:22:35.624Z,210
2017-01-12T12:23:40.880Z,210
2017-01-12T12:24:46.077Z,205
2017-01-12T12:25:50.316Z,205
2017-01-12T12:26:55.512Z,210
2017-01-12T12:27:58.751Z,210
2017-01-12T12:29:04.913Z,230
2017-01-12T12:30:08.164Z,240
2017-01-12T12:31:13.369Z,240
2017-01-12T12:32:18.562Z,235
2017-01-12T12:33:23.759Z,225
2017-01-12T12:34:28.067Z,240
2017-01-12T12:35:34.324Z,225
2017-01-12T12:36:39.532Z,225
2017-01-12T12:37:44.743Z,230
2017-01-12T12:38:49.954Z,230
2017-01-12T12:39:56.120Z,245
2017-01-12T12:41:02.290Z,255
2017-01-12T12:42:08.531Z,255
2017-01-12T12:43:11.799Z,260
2017-01-12T12:44:17.971Z,265
2017-01-12T12:45:23.169Z,270
2017-01-12T12:46:26.415Z,265
2017-01-12T12:47:31.696Z,260
2017-01-12T12:48:37.870Z,250
2017-01-12T12:49:43.071Z,245
2017-01-12T12:50:47.274Z,240
2017-01-12T12:51:51.545Z,240
2017-01-12T12:52:56.726Z,245
2017-01-12T12:54:01.925Z,250
2017-01-12T12:55:06.163Z,250
2017-01-12T12:56:11.364Z,255
2017-01-12T12:57:17.528Z,260
2017-01-12T12:58:22.719Z,260
2017-01-12T12:59:28.891Z,250
2017-01-12T13:00:35.121Z,245
2017-01-12T13:01:41.298Z,245
2017-01-12T13:02:45.558Z,250
2017-01-12T13:03:51.731Z,255
2017-01-12T13:04:56.912Z,255
2017-01-12T13:06:01.196Z,265
2017-01-12T13:07:06.397Z,250
2017-01-12T13:08:10.608Z,235
2017-01-12T13:09:13.881Z,230
2017-01-12T13:10:20.063Z,220
2017-01-12T13:11:26.219Z,215
2017-01-12T13:12:32.415Z,215
2017-01-12T13:13:38.579Z,215
2017-01-12T13:14:44.754Z,215
2017-01-12T13:15:50.919Z,205
2017-01-12T13:16:57.100Z,200
2017-01-12T13:18:02.416Z,185
2017-01-12T13:19:07.594Z,185
2017-01-12T13:20:11.889Z,175
2017-01-12T13:21:17.049Z,175
2017-01-12T13:22:22.269Z,180
2017-01-12T13:23:27.480Z,170
2017-01-12T13:24:32.691Z,170
2017-01-12T13:25:36.921Z,165
2017-01-12T13:26:41.160Z,165
2017-01-12T13:27:46.364Z,175
2017-01-12T13:28:51.563Z,180
2017-01-12T13:29:57.737Z,185
2017-01-12T13:31:02.931Z,190
2017-01-12T13:32:08.093Z,200
2017-01-12T13:33:11.346Z,200
2017-01-12T13:34:17.520Z,200
2017-01-12T13:35:23.694Z,185
2017-01-12T13:36:28.899Z,185
2017-01-12T13:37:35.187Z,180
2017-01-12T13:38:39.419Z,190
2017-01-12T13:39:45.590Z,190
2017-01-12T13:40:51.760Z,185
2017-01-12T13:41:57.924Z,175
2017-01-12T13:43:00.197Z,175
2017-01-12T13:44:06.366Z,185
2017-01-12T13:45:10.576Z,180
2017-01-12T13:46:15.871Z,180
2017-01-12T13:47:20.081Z,175
2017-01-12T13:48:25.257Z,175
2017-01-12T13:49:31.427Z,175
2017-01-12T13:50:37.598Z,170
2017-01-12T13:51:43.764Z,170
2017-01-12T13:52:50.015Z,165
2017-01-12T13:53:56.153Z,165
2017-01-12T13:55:02.324Z,160
2017-01-12T13:56:07.495Z,150
2017-01-12T13:57:12.699Z,145
2017-01-12T13:58:18.871Z,140
2017-01-12T13:59:24.083Z,145
2017-01-12T14:00:28.310Z,140
2017-01-12T14:01:33.526Z,130
2017-01-12T14:02:38.732Z,130
2017-01-12T14:03:43.928Z,125
2017-01-12T14:04:49.128Z,125
2017-01-12T14:06:57.572Z,120
2017-01-12T14:08:03.749Z,120
2017-01-12T14:09:08.944Z,120
2017-01-12T14:10:14.144Z,115
2017-01-12T14:11:19.343Z,115
2017-01-12T14:12:23.588Z,100
2017-01-12T14:13:28.812Z,100
2017-01-12T14:14:34.010Z,105
2017-01-12T14:15:38.254Z,105
2017-01-12T14:16:44.418Z,105
2017-01-12T14:17:48.623Z,105
2017-01-12T14:18:54.809Z,100
2017-01-12T14:20:00.018Z,100
2017-01-12T14:21:04.257Z,95
2017-01-12T14:22:09.455Z,85
2017-01-12T14:23:13.693Z,85
2017-01-12T14:24:19.870Z,80
2017-01-12T14:25:24.140Z,75
2017-01-12T14:26:30.302Z,75
2017-01-12T14:27:35.508Z,75
2017-01-12T14:28:41.672Z,75
2017-01-12T14:29:46.878Z,75
2017-01-12T14:30:53.044Z,80
2017-01-12T14:31:58.250Z,75
2017-01-12T14:33:02.478Z,75
2017-01-12T14:34:07.675Z,70
2017-01-12T14:35:13.884Z,70
2017-01-12T14:36:19.131Z,70
2017-01-12T14:37:24.325Z,70
2017-01-12T14:38:29.576Z,70
2017-01-12T14:39:33.814Z,70
2017-01-12T14:40:39.008Z,70
2017-01-12T14:41:42.267Z,75
2017-01-12T14:42:47.498Z,75
2017-01-12T14:43:52.660Z,70
2017-01-12T14:44:56.869Z,70
2017-01-12T14:46:02.063Z,70
2017-01-12T14:47:06.303Z,65
2017-01-12T14:48:11.511Z,65
2017-01-12T14:49:16.690Z,70
2017-01-12T14:50:21.032Z,70
2017-01-12T14:51:25.278Z,65
2017-01-12T14:52:31.446Z,65
2017-01-12T14:53:36.743Z,60
2017-01-12T14:54:41.336Z,60
2017-01-12T14:55:47.610Z,60
2017-01-12T14:56:52.830Z,60
2017-01-12T14:57:57.060Z,60
2017-01-12T14:59:03.230Z,55
2017-01-12T15:00:08.425Z,55
2017-01-12T15:01:12.741Z,50
2017-01-12T15:02:17.907Z,50
2017-01-12T15:03:24.086Z,50
2017-01-12T15:04:29.289Z,45
2017-01-12T15:05:34.481Z,45
2017-01-12T15:06:40.654Z,40
2017-01-12T15:07:46.868Z,40
2017-01-12T15:08:51.105Z,40
2017-01-12T15:09:55.332Z,35
2017-01-12T15:11:00.527Z,35
2017-01-12T15:12:05.684Z,30
2017-01-12T15:13:09.924Z,30
2017-01-12T15:15:53.617Z,25
2017-01-12T15:16:59.896Z,25
2017-01-12T15:18:03.284Z,20
2017-01-12T15:19:28.355Z,20
2017-01-12T15:20:33.563Z,20
2017-01-12T15:21:39.804Z,20
2017-01-12T15:22:43.985Z,20
2017-01-12T15:23:59.126Z,20
2017-01-12T15:25:05.287Z,15
2017-01-12T15:26:09.818Z,15
2017-01-12T15:27:15.044Z,15
2017-01-12T15:28:21.188Z,15
2017-01-12T15:29:27.374Z,15
2017-01-12T15:30:33.545Z,10
2017-01-12T15:31:38.742Z,10
2017-01-12T15:32:44.271Z,10
2017-01-12T15:33:50.441Z,10
2017-01-12T15:34:55.622Z,10
2017-01-12T15:36:11.732Z,10
2017-01-12T15:37:15.049Z,5
2017-01-12T15:38:21.219Z,5
2017-01-12T15:39:25.449Z,5
2017-01-12T15:40:29.679Z,5
2017-01-12T15:41:34.892Z,5
2017-01-12T15:42:40.081Z,5